sensor_id;sensor_type;location;lat;lon;timestamp;temperature;humidity
25208;DHT22;13153;52.316;21.166;2023-11-19T00:01:40;1.20;99.90
25208;DHT22;13153;52.316;21.166;2023-11-19T00:04:06;1.20;99.90
25208;DHT22;13153;52.316;21.166;2023-11-19T00:06:32;1.20;99.90
25208;DHT22;13153;52.316;21.166;2023-11-19T00:08:57;1.30;99.90
25208;DHT22;13153;52.316;21.166;2023-11-19T00:11:23;1.20;99.90
25208;DHT22;13153;52.316;21.166;2023-11-19T00:13:49;1.30;99.90
25208;DHT22;13153;52.316;21.166;2023-11-19T00:16:14;1.30;99.90
25208;DHT22;13153;52.316;21.166;2023-11-19T00:18:41;1.30;99.90
25208;DHT22;13153;52.316;21.166;2023-11-19T00:21:07;1.40;99.90
25208;DHT22;13153;52.316;21.166;2023-11-19T00:23:36;1.40;99.90
25208;DHT22;13153;52.316;21.166;2023-11-19T00:26:02;1.40;99.90
25208;DHT22;13153;52.316;21.166;2023-11-19T00:28:32;1.30;99.90
25208;DHT22;13153;52.316;21.166;2023-11-19T00:30:58;1.40;99.90
25208;DHT22;13153;52.316;21.166;2023-11-19T00:33:24;1.40;99.90
25208;DHT22;13153;52.316;21.166;2023-11-19T00:35:50;1.40;99.90
25208;DHT22;13153;52.316;21.166;2023-11-19T00:38:16;1.40;99.90
25208;DHT22;13153;52.316;21.166;2023-11-19T00:40:41;1.40;99.90
25208;DHT22;13153;52.316;21.166;2023-11-19T00:43:07;1.50;99.90
25208;DHT22;13153;52.316;21.166;2023-11-19T00:45:33;1.50;99.90
25208;DHT22;13153;52.316;21.166;2023-11-19T00:47:59;1.50;99.90
25208;DHT22;13153;52.316;21.166;2023-11-19T00:50:25;1.50;99.90
25208;DHT22;13153;52.316;21.166;2023-11-19T00:52:51;1.50;99.90
25208;DHT22;13153;52.316;21.166;2023-11-19T00:55:16;1.50;99.90
25208;DHT22;13153;52.316;21.166;2023-11-19T00:57:43;1.50;99.90
25208;DHT22;13153;52.316;21.166;2023-11-19T01:00:09;1.40;99.90
25208;DHT22;13153;52.316;21.166;2023-11-19T01:02:47;1.50;99.90
25208;DHT22;13153;52.316;21.166;2023-11-19T01:05:15;1.50;99.90
25208;DHT22;13153;52.316;21.166;2023-11-19T01:07:41;1.50;99.90
25208;DHT22;13153;52.316;21.166;2023-11-19T01:10:07;1.50;99.90
25208;DHT22;13153;52.316;21.166;2023-11-19T01:12:33;1.50;99.90
25208;DHT22;13153;52.316;21.166;2023-11-19T01:14:59;1.50;99.90
25208;DHT22;13153;52.316;21.166;2023-11-19T01:17:26;1.50;99.90
25208;DHT22;13153;52.316;21.166;2023-11-19T01:19:52;1.50;99.90
25208;DHT22;13153;52.316;21.166;2023-11-19T01:22:17;1.60;99.90
25208;DHT22;13153;52.316;21.166;2023-11-19T01:24:44;1.60;99.90
25208;DHT22;13153;52.316;21.166;2023-11-19T01:27:10;1.60;99.90
25208;DHT22;13153;52.316;21.166;2023-11-19T01:29:35;1.50;99.90
25208;DHT22;13153;52.316;21.166;2023-11-19T01:32:03;1.60;99.90
25208;DHT22;13153;52.316;21.166;2023-11-19T01:34:29;1.50;99.90
25208;DHT22;13153;52.316;21.166;2023-11-19T01:36:55;1.60;99.90
25208;DHT22;13153;52.316;21.166;2023-11-19T01:39:21;1.60;99.90
25208;DHT22;13153;52.316;21.166;2023-11-19T01:41:47;1.60;99.90
25208;DHT22;13153;52.316;21.166;2023-11-19T01:44:13;1.60;99.90
25208;DHT22;13153;52.316;21.166;2023-11-19T01:46:40;1.60;99.90
25208;DHT22;13153;52.316;21.166;2023-11-19T01:49:09;1.60;99.90
25208;DHT22;13153;52.316;21.166;2023-11-19T01:51:38;1.60;99.90
25208;DHT22;13153;52.316;21.166;2023-11-19T01:54:05;1.60;99.90
25208;DHT22;13153;52.316;21.166;2023-11-19T01:56:33;1.70;99.90
25208;DHT22;13153;52.316;21.166;2023-11-19T01:59:00;1.70;99.90
25208;DHT22;13153;52.316;21.166;2023-11-19T02:01:27;1.70;99.90
25208;DHT22;13153;52.316;21.166;2023-11-19T02:03:55;1.60;99.90
25208;DHT22;13153;52.316;21.166;2023-11-19T02:06:21;1.70;99.90
25208;DHT22;13153;52.316;21.166;2023-11-19T02:08:47;1.60;99.90
25208;DHT22;13153;52.316;21.166;2023-11-19T02:11:13;1.70;99.90
25208;DHT22;13153;52.316;21.166;2023-11-19T02:13:39;1.60;99.90
25208;DHT22;13153;52.316;21.166;2023-11-19T02:16:07;1.60;99.90
25208;DHT22;13153;52.316;21.166;2023-11-19T02:18:34;1.60;99.90
25208;DHT22;13153;52.316;21.166;2023-11-19T02:21:00;1.60;99.90
25208;DHT22;13153;52.316;21.166;2023-11-19T02:23:27;1.60;99.90
25208;DHT22;13153;52.316;21.166;2023-11-19T02:28:43;1.60;99.90
25208;DHT22;13153;52.316;21.166;2023-11-19T02:31:10;1.60;99.90
25208;DHT22;13153;52.316;21.166;2023-11-19T02:33:37;1.60;99.90
25208;DHT22;13153;52.316;21.166;2023-11-19T02:36:07;1.60;99.90
25208;DHT22;13153;52.316;21.166;2023-11-19T02:38:34;1.60;99.90
25208;DHT22;13153;52.316;21.166;2023-11-19T02:41:05;1.60;99.90
25208;DHT22;13153;52.316;21.166;2023-11-19T02:43:35;1.60;99.90
25208;DHT22;13153;52.316;21.166;2023-11-19T02:46:03;1.60;99.90
25208;DHT22;13153;52.316;21.166;2023-11-19T02:48:35;1.60;99.90
25208;DHT22;13153;52.316;21.166;2023-11-19T02:51:02;1.60;99.90
25208;DHT22;13153;52.316;21.166;2023-11-19T02:53:29;1.60;99.90
25208;DHT22;13153;52.316;21.166;2023-11-19T02:55:55;1.60;99.90
25208;DHT22;13153;52.316;21.166;2023-11-19T02:58:28;1.70;99.90
25208;DHT22;13153;52.316;21.166;2023-11-19T03:00:55;1.70;99.90
25208;DHT22;13153;52.316;21.166;2023-11-19T03:03:25;1.70;99.90
25208;DHT22;13153;52.316;21.166;2023-11-19T03:06:04;1.70;99.90
25208;DHT22;13153;52.316;21.166;2023-11-19T03:08:30;1.60;99.90
25208;DHT22;13153;52.316;21.166;2023-11-19T03:10:56;1.60;99.90
25208;DHT22;13153;52.316;21.166;2023-11-19T03:13:22;1.60;99.90
25208;DHT22;13153;52.316;21.166;2023-11-19T03:15:47;1.70;99.90
25208;DHT22;13153;52.316;21.166;2023-11-19T03:18:13;1.70;99.90
25208;DHT22;13153;52.316;21.166;2023-11-19T03:20:39;1.60;99.90
25208;DHT22;13153;52.316;21.166;2023-11-19T03:23:05;1.60;99.90
25208;DHT22;13153;52.316;21.166;2023-11-19T03:25:32;1.70;99.90
25208;DHT22;13153;52.316;21.166;2023-11-19T03:28:02;1.70;99.90
25208;DHT22;13153;52.316;21.166;2023-11-19T03:30:29;1.70;99.90
25208;DHT22;13153;52.316;21.166;2023-11-19T03:32:56;1.70;99.90
25208;DHT22;13153;52.316;21.166;2023-11-19T03:35:23;1.70;99.90
25208;DHT22;13153;52.316;21.166;2023-11-19T03:37:50;1.70;99.90
25208;DHT22;13153;52.316;21.166;2023-11-19T03:40:17;1.70;99.90
25208;DHT22;13153;52.316;21.166;2023-11-19T03:42:45;1.60;99.90
25208;DHT22;13153;52.316;21.166;2023-11-19T03:45:11;1.50;99.90
25208;DHT22;13153;52.316;21.166;2023-11-19T03:47:37;1.50;99.90
25208;DHT22;13153;52.316;21.166;2023-11-19T03:50:04;1.50;99.90
25208;DHT22;13153;52.316;21.166;2023-11-19T03:52:31;1.50;99.90
25208;DHT22;13153;52.316;21.166;2023-11-19T03:54:56;1.50;99.90
25208;DHT22;13153;52.316;21.166;2023-11-19T03:57:23;1.50;99.90
25208;DHT22;13153;52.316;21.166;2023-11-19T03:59:49;1.40;99.90
25208;DHT22;13153;52.316;21.166;2023-11-19T04:02:15;1.40;99.90
25208;DHT22;13153;52.316;21.166;2023-11-19T04:04:42;1.50;99.90
25208;DHT22;13153;52.316;21.166;2023-11-19T04:07:08;1.40;99.90
25208;DHT22;13153;52.316;21.166;2023-11-19T04:09:33;1.50;99.90
25208;DHT22;13153;52.316;21.166;2023-11-19T04:12:00;1.40;99.90
25208;DHT22;13153;52.316;21.166;2023-11-19T04:14:26;1.40;99.90
25208;DHT22;13153;52.316;21.166;2023-11-19T04:16:52;1.40;99.90
25208;DHT22;13153;52.316;21.166;2023-11-19T04:19:19;1.40;99.90
25208;DHT22;13153;52.316;21.166;2023-11-19T04:21:45;1.50;99.90
25208;DHT22;13153;52.316;21.166;2023-11-19T04:24:12;1.50;99.90
25208;DHT22;13153;52.316;21.166;2023-11-19T04:26:44;1.50;99.90
25208;DHT22;13153;52.316;21.166;2023-11-19T04:29:16;1.50;99.90
25208;DHT22;13153;52.316;21.166;2023-11-19T04:31:43;1.50;99.90
25208;DHT22;13153;52.316;21.166;2023-11-19T04:34:12;1.50;99.90
25208;DHT22;13153;52.316;21.166;2023-11-19T04:36:38;1.50;99.90
25208;DHT22;13153;52.316;21.166;2023-11-19T04:39:05;1.40;99.90
25208;DHT22;13153;52.316;21.166;2023-11-19T04:41:35;1.50;99.90
25208;DHT22;13153;52.316;21.166;2023-11-19T04:44:02;1.40;99.90
25208;DHT22;13153;52.316;21.166;2023-11-19T04:46:28;1.50;99.90
25208;DHT22;13153;52.316;21.166;2023-11-19T04:48:53;1.40;99.90
25208;DHT22;13153;52.316;21.166;2023-11-19T04:51:19;1.40;99.90
25208;DHT22;13153;52.316;21.166;2023-11-19T04:53:45;1.40;99.90
25208;DHT22;13153;52.316;21.166;2023-11-19T04:56:11;1.40;99.90
25208;DHT22;13153;52.316;21.166;2023-11-19T04:58:38;1.40;99.90
25208;DHT22;13153;52.316;21.166;2023-11-19T05:01:04;1.50;99.90
25208;DHT22;13153;52.316;21.166;2023-11-19T05:03:31;1.50;99.90
25208;DHT22;13153;52.316;21.166;2023-11-19T05:05:57;1.50;99.90
25208;DHT22;13153;52.316;21.166;2023-11-19T05:08:23;1.50;99.90
25208;DHT22;13153;52.316;21.166;2023-11-19T05:10:49;1.60;99.90
25208;DHT22;13153;52.316;21.166;2023-11-19T05:13:14;1.50;99.90
25208;DHT22;13153;52.316;21.166;2023-11-19T05:15:40;1.60;99.90
25208;DHT22;13153;52.316;21.166;2023-11-19T05:18:06;1.60;99.90
25208;DHT22;13153;52.316;21.166;2023-11-19T05:20:32;1.60;99.90
25208;DHT22;13153;52.316;21.166;2023-11-19T05:22:58;1.60;99.90
25208;DHT22;13153;52.316;21.166;2023-11-19T05:25:26;1.60;99.90
25208;DHT22;13153;52.316;21.166;2023-11-19T05:27:52;1.60;99.90
25208;DHT22;13153;52.316;21.166;2023-11-19T05:30:19;1.60;99.90
25208;DHT22;13153;52.316;21.166;2023-11-19T05:32:44;1.60;99.90
25208;DHT22;13153;52.316;21.166;2023-11-19T05:35:11;1.60;99.90
25208;DHT22;13153;52.316;21.166;2023-11-19T05:37:37;1.60;99.90
25208;DHT22;13153;52.316;21.166;2023-11-19T05:40:04;1.60;99.90
25208;DHT22;13153;52.316;21.166;2023-11-19T05:42:37;1.60;99.90
25208;DHT22;13153;52.316;21.166;2023-11-19T05:45:03;1.60;99.90
25208;DHT22;13153;52.316;21.166;2023-11-19T05:47:29;1.60;99.90
25208;DHT22;13153;52.316;21.166;2023-11-19T05:49:55;1.60;99.90
25208;DHT22;13153;52.316;21.166;2023-11-19T05:52:20;1.60;99.90
25208;DHT22;13153;52.316;21.166;2023-11-19T05:54:47;1.60;99.90
25208;DHT22;13153;52.316;21.166;2023-11-19T05:57:17;1.60;99.90
25208;DHT22;13153;52.316;21.166;2023-11-19T05:59:48;1.60;99.90
25208;DHT22;13153;52.316;21.166;2023-11-19T06:02:13;1.60;99.90
25208;DHT22;13153;52.316;21.166;2023-11-19T06:04:39;1.70;99.90
25208;DHT22;13153;52.316;21.166;2023-11-19T06:07:05;1.60;99.90
25208;DHT22;13153;52.316;21.166;2023-11-19T06:09:31;1.60;99.90
25208;DHT22;13153;52.316;21.166;2023-11-19T06:11:59;1.60;99.90
25208;DHT22;13153;52.316;21.166;2023-11-19T06:14:27;1.60;99.90
25208;DHT22;13153;52.316;21.166;2023-11-19T06:16:53;1.60;99.90
25208;DHT22;13153;52.316;21.166;2023-11-19T06:19:19;1.60;99.90
25208;DHT22;13153;52.316;21.166;2023-11-19T06:21:44;1.60;99.90
25208;DHT22;13153;52.316;21.166;2023-11-19T06:24:10;1.60;99.90
25208;DHT22;13153;52.316;21.166;2023-11-19T06:26:36;1.60;99.90
25208;DHT22;13153;52.316;21.166;2023-11-19T06:29:01;1.60;99.90
25208;DHT22;13153;52.316;21.166;2023-11-19T06:31:27;1.60;99.90
25208;DHT22;13153;52.316;21.166;2023-11-19T06:33:53;1.70;99.90
25208;DHT22;13153;52.316;21.166;2023-11-19T06:36:18;1.60;99.90
25208;DHT22;13153;52.316;21.166;2023-11-19T06:38:44;1.60;99.90
25208;DHT22;13153;52.316;21.166;2023-11-19T06:41:10;1.60;99.90
25208;DHT22;13153;52.316;21.166;2023-11-19T06:43:37;1.60;99.90
25208;DHT22;13153;52.316;21.166;2023-11-19T06:46:03;1.70;99.90
25208;DHT22;13153;52.316;21.166;2023-11-19T06:48:34;1.70;99.90
25208;DHT22;13153;52.316;21.166;2023-11-19T06:51:00;1.70;99.90
25208;DHT22;13153;52.316;21.166;2023-11-19T06:53:26;1.70;99.90
25208;DHT22;13153;52.316;21.166;2023-11-19T06:55:53;1.60;99.90
25208;DHT22;13153;52.316;21.166;2023-11-19T06:58:20;1.70;99.90
25208;DHT22;13153;52.316;21.166;2023-11-19T07:00:45;1.60;99.90
25208;DHT22;13153;52.316;21.166;2023-11-19T07:03:12;1.60;99.90
25208;DHT22;13153;52.316;21.166;2023-11-19T07:05:38;1.70;99.90
25208;DHT22;13153;52.316;21.166;2023-11-19T07:08:06;1.70;99.90
25208;DHT22;13153;52.316;21.166;2023-11-19T07:10:32;1.70;99.90
25208;DHT22;13153;52.316;21.166;2023-11-19T07:12:59;1.70;99.90
25208;DHT22;13153;52.316;21.166;2023-11-19T07:15:25;1.80;99.90
25208;DHT22;13153;52.316;21.166;2023-11-19T07:17:51;1.70;99.90
25208;DHT22;13153;52.316;21.166;2023-11-19T07:20:19;1.70;99.90
25208;DHT22;13153;52.316;21.166;2023-11-19T07:22:45;1.70;99.90
25208;DHT22;13153;52.316;21.166;2023-11-19T07:25:14;1.70;99.90
25208;DHT22;13153;52.316;21.166;2023-11-19T07:27:40;1.70;99.90
25208;DHT22;13153;52.316;21.166;2023-11-19T07:30:06;1.70;99.90
25208;DHT22;13153;52.316;21.166;2023-11-19T07:32:33;1.70;99.90
25208;DHT22;13153;52.316;21.166;2023-11-19T07:34:59;1.70;99.90
25208;DHT22;13153;52.316;21.166;2023-11-19T07:37:25;1.60;99.90
25208;DHT22;13153;52.316;21.166;2023-11-19T07:39:51;1.60;99.90
25208;DHT22;13153;52.316;21.166;2023-11-19T07:45:01;1.60;99.90
25208;DHT22;13153;52.316;21.166;2023-11-19T07:47:27;1.50;99.90
25208;DHT22;13153;52.316;21.166;2023-11-19T07:49:54;1.60;99.90
25208;DHT22;13153;52.316;21.166;2023-11-19T07:52:19;1.50;99.90
25208;DHT22;13153;52.316;21.166;2023-11-19T07:54:45;1.50;99.90
25208;DHT22;13153;52.316;21.166;2023-11-19T07:57:11;1.40;99.90
25208;DHT22;13153;52.316;21.166;2023-11-19T07:59:36;1.50;99.90
25208;DHT22;13153;52.316;21.166;2023-11-19T08:02:02;1.40;99.90
25208;DHT22;13153;52.316;21.166;2023-11-19T08:04:30;1.40;99.90
25208;DHT22;13153;52.316;21.166;2023-11-19T08:06:56;1.40;99.90
25208;DHT22;13153;52.316;21.166;2023-11-19T08:09:22;1.40;99.90
25208;DHT22;13153;52.316;21.166;2023-11-19T08:11:48;1.50;99.90
25208;DHT22;13153;52.316;21.166;2023-11-19T08:14:15;1.60;99.90
25208;DHT22;13153;52.316;21.166;2023-11-19T08:16:40;1.60;99.90
25208;DHT22;13153;52.316;21.166;2023-11-19T08:19:06;1.70;99.90
25208;DHT22;13153;52.316;21.166;2023-11-19T08:21:33;1.70;99.90
25208;DHT22;13153;52.316;21.166;2023-11-19T08:23:59;1.80;99.90
25208;DHT22;13153;52.316;21.166;2023-11-19T08:26:25;1.90;99.90
25208;DHT22;13153;52.316;21.166;2023-11-19T08:28:51;2.10;99.90
25208;DHT22;13153;52.316;21.166;2023-11-19T08:31:17;2.10;99.90
25208;DHT22;13153;52.316;21.166;2023-11-19T08:33:43;2.20;98.40
25208;DHT22;13153;52.316;21.166;2023-11-19T08:36:14;2.20;96.50
25208;DHT22;13153;52.316;21.166;2023-11-19T08:38:40;2.20;95.30
25208;DHT22;13153;52.316;21.166;2023-11-19T08:41:07;2.20;94.10
25208;DHT22;13153;52.316;21.166;2023-11-19T08:43:33;2.20;91.30
25208;DHT22;13153;52.316;21.166;2023-11-19T08:45:58;2.20;96.20
25208;DHT22;13153;52.316;21.166;2023-11-19T08:48:24;2.20;96.20
25208;DHT22;13153;52.316;21.166;2023-11-19T08:50:51;2.20;93.90
25208;DHT22;13153;52.316;21.166;2023-11-19T08:53:17;2.20;94.30
25208;DHT22;13153;52.316;21.166;2023-11-19T08:55:42;2.30;99.90
25208;DHT22;13153;52.316;21.166;2023-11-19T08:58:08;2.30;99.30
25208;DHT22;13153;52.316;21.166;2023-11-19T09:00:34;2.30;90.80
25208;DHT22;13153;52.316;21.166;2023-11-19T09:02:59;2.40;85.10
25208;DHT22;13153;52.316;21.166;2023-11-19T09:05:26;2.40;84.30
25208;DHT22;13153;52.316;21.166;2023-11-19T09:07:51;2.50;80.40
25208;DHT22;13153;52.316;21.166;2023-11-19T09:10:17;2.50;74.10
25208;DHT22;13153;52.316;21.166;2023-11-19T09:12:43;2.50;72.10
25208;DHT22;13153;52.316;21.166;2023-11-19T09:15:09;2.50;75.10
25208;DHT22;13153;52.316;21.166;2023-11-19T09:17:38;2.40;69.80
25208;DHT22;13153;52.316;21.166;2023-11-19T09:20:04;2.40;67.10
25208;DHT22;13153;52.316;21.166;2023-11-19T09:22:30;2.30;75.80
25208;DHT22;13153;52.316;21.166;2023-11-19T09:24:56;2.40;80.30
25208;DHT22;13153;52.316;21.166;2023-11-19T09:27:25;2.40;90.40
25208;DHT22;13153;52.316;21.166;2023-11-19T09:29:51;2.40;92.30
25208;DHT22;13153;52.316;21.166;2023-11-19T09:32:22;2.40;91.00
25208;DHT22;13153;52.316;21.166;2023-11-19T09:34:48;2.50;93.20
25208;DHT22;13153;52.316;21.166;2023-11-19T09:37:15;2.40;87.30
25208;DHT22;13153;52.316;21.166;2023-11-19T09:39:41;2.30;78.70
25208;DHT22;13153;52.316;21.166;2023-11-19T09:42:10;2.40;92.30
25208;DHT22;13153;52.316;21.166;2023-11-19T09:44:38;2.40;93.80
25208;DHT22;13153;52.316;21.166;2023-11-19T09:47:05;2.40;95.40
25208;DHT22;13153;52.316;21.166;2023-11-19T09:49:33;2.40;93.50
25208;DHT22;13153;52.316;21.166;2023-11-19T09:52:01;2.30;93.80
25208;DHT22;13153;52.316;21.166;2023-11-19T09:54:28;2.20;99.60
25208;DHT22;13153;52.316;21.166;2023-11-19T09:56:56;2.20;99.90
25208;DHT22;13153;52.316;21.166;2023-11-19T09:59:30;2.10;99.90
25208;DHT22;13153;52.316;21.166;2023-11-19T10:01:56;2.10;99.90
25208;DHT22;13153;52.316;21.166;2023-11-19T10:04:23;2.20;99.90
25208;DHT22;13153;52.316;21.166;2023-11-19T10:06:51;2.20;99.90
25208;DHT22;13153;52.316;21.166;2023-11-19T10:09:17;2.30;99.90
25208;DHT22;13153;52.316;21.166;2023-11-19T10:11:44;2.40;99.90
25208;DHT22;13153;52.316;21.166;2023-11-19T10:14:10;2.40;99.90
25208;DHT22;13153;52.316;21.166;2023-11-19T10:16:35;2.40;98.50
25208;DHT22;13153;52.316;21.166;2023-11-19T10:19:03;2.40;97.80
25208;DHT22;13153;52.316;21.166;2023-11-19T10:21:29;2.40;98.20
25208;DHT22;13153;52.316;21.166;2023-11-19T10:23:58;2.40;97.30
25208;DHT22;13153;52.316;21.166;2023-11-19T10:26:25;2.40;97.00
25208;DHT22;13153;52.316;21.166;2023-11-19T10:28:52;2.30;97.20
25208;DHT22;13153;52.316;21.166;2023-11-19T10:31:20;2.20;99.90
25208;DHT22;13153;52.316;21.166;2023-11-19T10:33:50;2.30;99.90
25208;DHT22;13153;52.316;21.166;2023-11-19T10:36:17;2.30;99.90
25208;DHT22;13153;52.316;21.166;2023-11-19T10:38:55;2.30;99.90
25208;DHT22;13153;52.316;21.166;2023-11-19T10:41:29;2.30;99.90
25208;DHT22;13153;52.316;21.166;2023-11-19T10:43:56;2.20;99.90
25208;DHT22;13153;52.316;21.166;2023-11-19T10:46:39;2.30;99.90
25208;DHT22;13153;52.316;21.166;2023-11-19T10:49:07;2.30;99.90
25208;DHT22;13153;52.316;21.166;2023-11-19T10:51:34;2.30;99.90
25208;DHT22;13153;52.316;21.166;2023-11-19T10:54:04;2.30;99.90
25208;DHT22;13153;52.316;21.166;2023-11-19T10:56:32;2.40;99.90
25208;DHT22;13153;52.316;21.166;2023-11-19T10:59:01;2.40;99.90
25208;DHT22;13153;52.316;21.166;2023-11-19T11:01:38;2.40;99.90
25208;DHT22;13153;52.316;21.166;2023-11-19T11:04:14;2.40;99.90
25208;DHT22;13153;52.316;21.166;2023-11-19T11:06:41;2.30;99.90
25208;DHT22;13153;52.316;21.166;2023-11-19T11:09:08;2.20;99.90
25208;DHT22;13153;52.316;21.166;2023-11-19T11:11:40;2.20;99.90
25208;DHT22;13153;52.316;21.166;2023-11-19T11:14:11;2.20;99.90
25208;DHT22;13153;52.316;21.166;2023-11-19T11:16:42;2.10;99.90
25208;DHT22;13153;52.316;21.166;2023-11-19T11:19:12;2.10;99.90
25208;DHT22;13153;52.316;21.166;2023-11-19T11:21:41;2.00;99.90
25208;DHT22;13153;52.316;21.166;2023-11-19T11:24:31;2.00;99.90
25208;DHT22;13153;52.316;21.166;2023-11-19T11:27:31;2.00;99.90
25208;DHT22;13153;52.316;21.166;2023-11-19T11:30:19;2.00;99.90
25208;DHT22;13153;52.316;21.166;2023-11-19T11:33:26;2.00;99.90
25208;DHT22;13153;52.316;21.166;2023-11-19T11:36:20;2.10;99.90
25208;DHT22;13153;52.316;21.166;2023-11-19T11:38:49;2.10;99.90
25208;DHT22;13153;52.316;21.166;2023-11-19T11:41:23;2.00;99.90
25208;DHT22;13153;52.316;21.166;2023-11-19T11:43:54;2.10;99.90
25208;DHT22;13153;52.316;21.166;2023-11-19T11:49:08;2.10;99.90
25208;DHT22;13153;52.316;21.166;2023-11-19T11:54:11;2.00;99.90
25208;DHT22;13153;52.316;21.166;2023-11-19T11:57:13;2.00;99.90
25208;DHT22;13153;52.316;21.166;2023-11-19T11:59:45;2.00;99.90
25208;DHT22;13153;52.316;21.166;2023-11-19T12:02:19;2.10;99.90
25208;DHT22;13153;52.316;21.166;2023-11-19T12:04:51;2.00;99.90
25208;DHT22;13153;52.316;21.166;2023-11-19T12:07:22;2.00;99.90
25208;DHT22;13153;52.316;21.166;2023-11-19T12:10:09;2.10;99.90
25208;DHT22;13153;52.316;21.166;2023-11-19T12:12:39;2.00;99.90
25208;DHT22;13153;52.316;21.166;2023-11-19T12:15:10;2.00;99.90
25208;DHT22;13153;52.316;21.166;2023-11-19T12:17:40;2.00;99.90
25208;DHT22;13153;52.316;21.166;2023-11-19T12:20:10;2.10;99.90
25208;DHT22;13153;52.316;21.166;2023-11-19T12:22:38;2.10;99.90
25208;DHT22;13153;52.316;21.166;2023-11-19T12:25:08;2.00;99.90
25208;DHT22;13153;52.316;21.166;2023-11-19T12:27:39;2.10;99.90
25208;DHT22;13153;52.316;21.166;2023-11-19T12:30:07;2.10;99.90
25208;DHT22;13153;52.316;21.166;2023-11-19T12:32:44;2.10;99.90
25208;DHT22;13153;52.316;21.166;2023-11-19T12:35:11;2.10;99.90
25208;DHT22;13153;52.316;21.166;2023-11-19T12:37:48;2.10;99.90
25208;DHT22;13153;52.316;21.166;2023-11-19T12:40:21;2.10;99.90
25208;DHT22;13153;52.316;21.166;2023-11-19T12:42:52;2.00;99.90
25208;DHT22;13153;52.316;21.166;2023-11-19T12:45:19;2.00;99.90
25208;DHT22;13153;52.316;21.166;2023-11-19T12:47:47;2.00;99.90
25208;DHT22;13153;52.316;21.166;2023-11-19T12:50:15;2.00;99.90
25208;DHT22;13153;52.316;21.166;2023-11-19T12:52:56;2.10;99.90
25208;DHT22;13153;52.316;21.166;2023-11-19T12:55:29;2.10;99.90
25208;DHT22;13153;52.316;21.166;2023-11-19T12:57:56;2.20;99.90
25208;DHT22;13153;52.316;21.166;2023-11-19T13:00:24;2.20;99.90
25208;DHT22;13153;52.316;21.166;2023-11-19T13:02:52;2.20;99.90
25208;DHT22;13153;52.316;21.166;2023-11-19T13:05:27;2.20;99.90
25208;DHT22;13153;52.316;21.166;2023-11-19T13:08:06;2.20;99.90
25208;DHT22;13153;52.316;21.166;2023-11-19T13:10:54;2.20;99.90
25208;DHT22;13153;52.316;21.166;2023-11-19T13:13:20;2.10;99.90
25208;DHT22;13153;52.316;21.166;2023-11-19T13:15:46;2.00;99.90
25208;DHT22;13153;52.316;21.166;2023-11-19T13:18:12;2.10;99.90
25208;DHT22;13153;52.316;21.166;2023-11-19T13:20:39;2.10;99.90
25208;DHT22;13153;52.316;21.166;2023-11-19T13:23:06;2.10;99.90
25208;DHT22;13153;52.316;21.166;2023-11-19T13:25:36;2.10;99.90
25208;DHT22;13153;52.316;21.166;2023-11-19T13:28:01;2.10;99.90
25208;DHT22;13153;52.316;21.166;2023-11-19T13:30:27;2.10;99.90
25208;DHT22;13153;52.316;21.166;2023-11-19T13:32:54;2.10;99.90
25208;DHT22;13153;52.316;21.166;2023-11-19T13:35:21;2.00;99.90
25208;DHT22;13153;52.316;21.166;2023-11-19T13:37:50;2.10;99.90
25208;DHT22;13153;52.316;21.166;2023-11-19T13:40:17;2.00;99.90
25208;DHT22;13153;52.316;21.166;2023-11-19T13:42:42;2.00;99.90
25208;DHT22;13153;52.316;21.166;2023-11-19T13:45:12;2.00;99.90
25208;DHT22;13153;52.316;21.166;2023-11-19T13:47:40;2.00;99.90
25208;DHT22;13153;52.316;21.166;2023-11-19T13:50:14;2.00;99.90
25208;DHT22;13153;52.316;21.166;2023-11-19T13:52:43;1.90;99.90
25208;DHT22;13153;52.316;21.166;2023-11-19T13:55:11;1.90;99.90
25208;DHT22;13153;52.316;21.166;2023-11-19T13:57:38;1.90;99.90
25208;DHT22;13153;52.316;21.166;2023-11-19T14:00:10;1.80;99.90
25208;DHT22;13153;52.316;21.166;2023-11-19T14:02:45;1.80;99.90
25208;DHT22;13153;52.316;21.166;2023-11-19T14:05:15;1.80;99.90
25208;DHT22;13153;52.316;21.166;2023-11-19T14:07:44;1.90;99.90
25208;DHT22;13153;52.316;21.166;2023-11-19T14:10:14;1.80;99.90
25208;DHT22;13153;52.316;21.166;2023-11-19T14:12:41;1.80;99.90
25208;DHT22;13153;52.316;21.166;2023-11-19T14:15:08;1.80;99.90
25208;DHT22;13153;52.316;21.166;2023-11-19T14:17:35;1.80;99.90
25208;DHT22;13153;52.316;21.166;2023-11-19T14:20:02;1.80;99.90
25208;DHT22;13153;52.316;21.166;2023-11-19T14:22:41;1.70;99.90
25208;DHT22;13153;52.316;21.166;2023-11-19T14:25:09;1.70;99.90
25208;DHT22;13153;52.316;21.166;2023-11-19T14:27:39;1.70;99.90
25208;DHT22;13153;52.316;21.166;2023-11-19T14:30:07;1.60;99.90
25208;DHT22;13153;52.316;21.166;2023-11-19T14:32:35;1.60;99.90
25208;DHT22;13153;52.316;21.166;2023-11-19T14:35:02;1.60;99.90
25208;DHT22;13153;52.316;21.166;2023-11-19T14:37:29;1.60;99.90
25208;DHT22;13153;52.316;21.166;2023-11-19T14:39:58;1.60;99.90
25208;DHT22;13153;52.316;21.166;2023-11-19T14:42:25;1.60;99.90
25208;DHT22;13153;52.316;21.166;2023-11-19T14:44:54;1.60;99.90
25208;DHT22;13153;52.316;21.166;2023-11-19T14:47:21;1.60;99.90
25208;DHT22;13153;52.316;21.166;2023-11-19T14:49:47;1.60;99.90
25208;DHT22;13153;52.316;21.166;2023-11-19T14:52:12;1.60;99.90
25208;DHT22;13153;52.316;21.166;2023-11-19T14:54:39;1.60;99.90
25208;DHT22;13153;52.316;21.166;2023-11-19T14:57:05;1.60;99.90
25208;DHT22;13153;52.316;21.166;2023-11-19T14:59:34;1.60;99.90
25208;DHT22;13153;52.316;21.166;2023-11-19T15:02:00;1.60;99.90
25208;DHT22;13153;52.316;21.166;2023-11-19T15:04:28;1.60;99.90
25208;DHT22;13153;52.316;21.166;2023-11-19T15:06:58;1.60;99.90
25208;DHT22;13153;52.316;21.166;2023-11-19T15:09:25;1.80;99.90
25208;DHT22;13153;52.316;21.166;2023-11-19T15:11:54;1.60;99.90
25208;DHT22;13153;52.316;21.166;2023-11-19T15:14:21;1.50;99.90
25208;DHT22;13153;52.316;21.166;2023-11-19T15:16:47;1.40;99.90
25208;DHT22;13153;52.316;21.166;2023-11-19T15:19:16;1.30;99.90
25208;DHT22;13153;52.316;21.166;2023-11-19T15:21:42;1.30;99.90
25208;DHT22;13153;52.316;21.166;2023-11-19T15:24:09;1.20;99.90
25208;DHT22;13153;52.316;21.166;2023-11-19T15:26:36;1.10;99.90
25208;DHT22;13153;52.316;21.166;2023-11-19T15:29:03;1.10;99.90
25208;DHT22;13153;52.316;21.166;2023-11-19T15:31:30;1.10;99.90
25208;DHT22;13153;52.316;21.166;2023-11-19T15:33:56;1.10;99.90
25208;DHT22;13153;52.316;21.166;2023-11-19T15:36:22;1.10;99.90
25208;DHT22;13153;52.316;21.166;2023-11-19T15:38:48;1.10;99.90
25208;DHT22;13153;52.316;21.166;2023-11-19T15:41:14;1.20;99.90
25208;DHT22;13153;52.316;21.166;2023-11-19T15:43:40;1.20;99.90
25208;DHT22;13153;52.316;21.166;2023-11-19T15:46:09;1.20;99.90